createdAt,value
2022-08-07T00:03:28.522Z,51.70
2022-08-07T00:07:19.090Z,51.90
2022-08-07T00:11:01.063Z,52.00
2022-08-07T00:14:48.485Z,52.30
2022-08-07T00:18:30.895Z,52.60
2022-08-07T00:22:13.143Z,52.60
2022-08-07T00:26:18.785Z,52.70
2022-08-07T00:30:27.571Z,53.00
2022-08-07T00:34:10.745Z,53.00
2022-08-07T00:37:52.901Z,53.00
2022-08-07T00:41:37.340Z,53.20
2022-08-07T00:45:35.398Z,53.40
2022-08-07T00:49:24.808Z,53.60
2022-08-07T00:53:21.434Z,53.60
2022-08-07T00:57:06.167Z,53.60
2022-08-07T01:00:53.795Z,53.90
2022-08-07T01:04:43.247Z,54.00
2022-08-07T01:08:25.915Z,54.10
2022-08-07T01:12:30.010Z,54.10
2022-08-07T01:16:13.049Z,54.30
2022-08-07T01:20:16.888Z,54.40
2022-08-07T01:24:02.359Z,54.60
2022-08-07T01:27:51.419Z,54.80
2022-08-07T01:31:42.754Z,54.90
2022-08-07T01:35:52.876Z,55.00
2022-08-07T01:39:40.826Z,55.20
2022-08-07T01:43:34.538Z,54.50
2022-08-07T01:48:19.571Z,54.70
2022-08-07T01:52:01.260Z,55.10
2022-08-07T01:55:36.742Z,55.30
2022-08-07T01:59:31.179Z,56.70
2022-08-07T02:03:21.389Z,56.90
2022-08-07T02:07:08.008Z,55.60
2022-08-07T02:10:58.099Z,55.50
2022-08-07T02:14:41.302Z,55.70
2022-08-07T02:18:26.001Z,55.80
2022-08-07T02:22:18.520Z,56.00
2022-08-07T02:26:31.341Z,56.90
2022-08-07T02:30:08.535Z,56.30
2022-08-07T02:34:03.914Z,56.20
2022-08-07T02:37:54.451Z,56.40
2022-08-07T02:41:37.418Z,56.50
2022-08-07T02:46:00.491Z,56.70
2022-08-07T02:49:28.753Z,56.80
2022-08-07T02:53:33.999Z,56.80
2022-08-07T02:57:21.935Z,57.70
2022-08-07T03:01:05.274Z,57.00
2022-08-07T03:05:00.615Z,57.10
2022-08-07T03:08:47.792Z,57.30
2022-08-07T03:12:32.695Z,57.40
2022-08-07T03:16:15.080Z,57.50
2022-08-07T03:19:57.532Z,57.60
2022-08-07T03:24:18.159Z,57.80
2022-08-07T03:27:59.199Z,58.00
2022-08-07T03:31:50.059Z,58.00
2022-08-07T03:35:43.541Z,57.90
2022-08-07T03:39:59.113Z,58.00
2022-08-07T03:43:38.382Z,58.20
2022-08-07T03:47:29.405Z,58.30
2022-08-07T03:51:12.073Z,58.40
2022-08-07T03:55:07.090Z,58.50
2022-08-07T03:59:07.922Z,58.90
2022-08-07T04:02:52.605Z,58.80
2022-08-07T04:06:40.904Z,58.90
2022-08-07T04:10:23.811Z,59.10
2022-08-07T04:14:33.072Z,59.30
2022-08-07T04:18:57.025Z,59.40
2022-08-07T04:22:17.814Z,59.50
2022-08-07T04:26:00.052Z,59.50
2022-08-07T04:29:58.518Z,59.60
2022-08-07T04:33:46.764Z,59.70
2022-08-07T04:37:52.816Z,59.70
2022-08-07T04:41:39.485Z,59.70
2022-08-07T04:45:57.562Z,59.60
2022-08-07T04:50:03.874Z,59.80
2022-08-07T04:54:17.478Z,61.20
2022-08-07T04:59:18.393Z,60.70
2022-08-07T05:02:52.729Z,60.50
2022-08-07T05:06:51.582Z,60.20
2022-08-07T05:10:43.633Z,59.70
2022-08-07T05:14:56.348Z,59.70
2022-08-07T05:19:04.918Z,60.40
2022-08-07T05:22:49.600Z,60.40
2022-08-07T05:26:34.174Z,59.60
2022-08-07T05:30:29.937Z,59.70
2022-08-07T05:34:17.304Z,59.70
2022-08-07T05:38:09.081Z,59.90
2022-08-07T05:42:01.137Z,59.80
2022-08-07T05:45:48.333Z,59.80
2022-08-07T05:49:40.877Z,59.80
2022-08-07T05:54:13.309Z,59.90
2022-08-07T05:57:26.774Z,59.90
2022-08-07T06:01:14.077Z,60.30
2022-08-07T06:05:01.776Z,60.80
2022-08-07T06:08:46.731Z,60.70
2022-08-07T06:12:31.997Z,60.40
2022-08-07T06:16:16.463Z,59.90
2022-08-07T06:20:04.020Z,59.30
2022-08-07T06:24:37.817Z,58.60
2022-08-07T06:28:54.455Z,57.70
2022-08-07T06:32:37.441Z,56.50
2022-08-07T06:36:34.930Z,56.10
2022-08-07T06:40:21.403Z,55.20
2022-08-07T06:44:10.719Z,55.10
2022-08-07T06:47:58.615Z,54.30
2022-08-07T06:51:49.962Z,52.90
2022-08-07T06:55:59.845Z,51.70
2022-08-07T07:00:12.385Z,51.20
2022-08-07T07:03:48.731Z,50.30
2022-08-07T07:07:59.734Z,49.30
2022-08-07T07:12:09.096Z,48.50
2022-08-07T07:15:51.382Z,47.60
2022-08-07T07:19:57.408Z,46.00
2022-08-07T07:24:09.726Z,45.20
2022-08-07T07:28:02.128Z,44.70
2022-08-07T07:31:51.687Z,43.30
2022-08-07T07:35:54.328Z,42.40
2022-08-07T07:39:52.519Z,42.00
2022-08-07T07:44:14.417Z,41.50
2022-08-07T07:47:52.456Z,40.40
2022-08-07T07:51:58.509Z,40.30
2022-08-07T07:55:54.841Z,39.60
2022-08-07T08:04:12.233Z,38.00
2022-08-07T08:08:00.867Z,37.70
2022-08-07T08:11:59.352Z,37.50
2022-08-07T08:15:58.846Z,36.50
2022-08-07T08:20:17.302Z,35.60
2022-08-07T08:24:04.269Z,35.60
2022-08-07T08:27:56.521Z,34.90
2022-08-07T08:31:58.729Z,33.30
2022-08-07T08:35:54.753Z,33.50
2022-08-07T08:39:38.965Z,32.80
2022-08-07T08:44:03.015Z,32.40
2022-08-07T08:48:05.446Z,31.20
2022-08-07T08:52:30.370Z,30.70
2022-08-07T08:56:47.299Z,30.30
2022-08-07T09:00:43.418Z,28.70
2022-08-07T09:04:50.194Z,29.70
2022-08-07T09:08:46.864Z,29.20
2022-08-07T09:12:54.159Z,29.70
2022-08-07T09:17:05.898Z,28.90
2022-08-07T09:21:02.841Z,28.20
2022-08-07T09:25:20.124Z,28.10
2022-08-07T09:30:04.695Z,28.50
2022-08-07T09:33:57.424Z,28.30
2022-08-07T09:37:54.047Z,26.80
2022-08-07T09:42:09.644Z,26.80
2022-08-07T09:47:24.370Z,26.00
2022-08-07T09:51:25.916Z,26.00
2022-08-07T09:56:03.580Z,25.80
2022-08-07T10:00:14.845Z,24.30
2022-08-07T10:04:14.402Z,23.40
2022-08-07T10:08:35.536Z,23.10
2022-08-07T10:12:21.459Z,23.20
2022-08-07T10:16:26.363Z,22.70
2022-08-07T10:20:35.282Z,21.90
2022-08-07T10:24:46.642Z,21.50
2022-08-07T10:29:02.991Z,20.70
2022-08-07T10:34:05.669Z,21.30
2022-08-07T10:38:21.663Z,20.90
2022-08-07T10:42:39.261Z,20.90
2022-08-07T10:46:37.871Z,21.90
2022-08-07T10:50:29.735Z,20.00
2022-08-07T10:54:24.524Z,19.90
2022-08-07T10:58:33.030Z,19.80
2022-08-07T11:02:54.671Z,19.20
2022-08-07T11:07:58.772Z,19.40
2022-08-07T11:11:37.597Z,19.20
2022-08-07T11:15:31.967Z,19.20
2022-08-07T11:19:56.180Z,18.00
2022-08-07T11:24:08.548Z,18.50
2022-08-07T11:28:04.864Z,17.70
2022-08-07T11:31:58.136Z,17.90
2022-08-07T11:35:59.650Z,17.30
2022-08-07T11:40:22.634Z,17.00
2022-08-07T11:44:20.898Z,17.60
2022-08-07T11:48:29.728Z,16.60
2022-08-07T11:53:05.139Z,16.50
2022-08-07T11:56:53.143Z,16.80
2022-08-07T12:00:48.885Z,16.60
2022-08-07T12:05:28.753Z,16.30
2022-08-07T12:09:55.773Z,15.60
2022-08-07T12:13:47.631Z,15.90
2022-08-07T12:17:38.063Z,14.50
2022-08-07T12:21:55.585Z,16.30
2022-08-07T12:26:06.138Z,14.60
2022-08-07T12:30:12.346Z,14.60
2022-08-07T12:34:01.830Z,14.00
2022-08-07T12:38:11.171Z,14.50
2022-08-07T12:41:54.702Z,14.00
2022-08-07T12:45:56.892Z,14.30
2022-08-07T12:50:05.000Z,14.30
2022-08-07T12:54:36.858Z,14.40
2022-08-07T12:58:28.165Z,14.60
2022-08-07T13:02:58.970Z,14.40
2022-08-07T13:07:01.021Z,14.10
2022-08-07T13:11:08.847Z,14.10
2022-08-07T13:15:23.498Z,13.90
2022-08-07T13:19:51.816Z,14.20
2022-08-07T13:24:01.021Z,14.30
2022-08-07T13:28:42.729Z,14.30
2022-08-07T13:32:47.021Z,14.20
2022-08-07T13:36:46.554Z,13.80
2022-08-07T13:40:45.462Z,13.60
2022-08-07T13:44:39.453Z,13.60
2022-08-07T13:52:36.241Z,14.10
2022-08-07T13:56:35.658Z,13.80
2022-08-07T14:00:39.735Z,14.30
2022-08-07T14:04:54.451Z,16.00
2022-08-07T14:08:45.794Z,17.20
2022-08-07T14:13:08.445Z,17.50
2022-08-07T14:16:56.498Z,18.60
2022-08-07T14:20:49.332Z,19.10
2022-08-07T14:24:42.328Z,19.70
2022-08-07T14:28:55.980Z,20.00
2022-08-07T14:32:47.429Z,20.60
2022-08-07T14:36:32.551Z,21.80
2022-08-07T14:40:26.353Z,22.40
2022-08-07T14:44:15.821Z,22.40
2022-08-07T14:48:01.806Z,23.30
2022-08-07T14:52:04.226Z,23.50
2022-08-07T14:55:56.493Z,24.10
2022-08-07T15:00:06.274Z,24.60
2022-08-07T15:03:52.960Z,25.50
2022-08-07T15:07:51.392Z,25.90
2022-08-07T15:11:53.152Z,26.10
2022-08-07T15:15:52.600Z,26.60
2022-08-07T15:20:31.444Z,26.50
2022-08-07T15:25:14.604Z,26.40
2022-08-07T15:28:02.000Z,26.50
2022-08-07T15:36:02.223Z,26.60
2022-08-07T15:39:59.892Z,26.80
2022-08-07T15:48:00.707Z,26.60
2022-08-07T15:55:53.581Z,26.80
2022-08-07T15:59:47.207Z,27.10
2022-08-07T16:03:47.452Z,27.00
2022-08-07T16:08:30.743Z,26.90
2022-08-07T16:11:49.985Z,27.10
2022-08-07T16:15:57.365Z,27.80
2022-08-07T16:20:02.860Z,27.60
2022-08-07T16:23:59.893Z,27.50
2022-08-07T16:27:59.689Z,27.70
2022-08-07T16:31:58.294Z,28.70
2022-08-07T16:36:03.147Z,29.00
2022-08-07T16:40:28.157Z,28.30
2022-08-07T16:44:47.261Z,28.50
2022-08-07T16:48:58.444Z,29.10
2022-08-07T16:53:20.725Z,28.80
2022-08-07T16:58:01.884Z,29.20
2022-08-07T17:01:56.557Z,30.20
2022-08-07T17:06:29.628Z,30.10
2022-08-07T17:10:33.267Z,29.90
2022-08-07T17:14:25.893Z,30.40
2022-08-07T17:18:28.308Z,30.20
2022-08-07T17:22:45.869Z,30.60
2022-08-07T17:27:00.192Z,30.80
2022-08-07T17:30:58.540Z,31.10
2022-08-07T17:35:32.881Z,31.30
2022-08-07T17:39:16.707Z,32.00
2022-08-07T17:43:18.557Z,31.60
2022-08-07T17:47:17.013Z,31.70
2022-08-07T17:51:21.519Z,31.80
2022-08-07T17:55:16.492Z,31.40
2022-08-07T17:59:25.579Z,32.50
2022-08-07T18:03:54.068Z,32.60
2022-08-07T18:07:47.064Z,33.00
2022-08-07T18:12:16.709Z,32.10
2022-08-07T18:16:06.920Z,33.30
2022-08-07T18:21:09.469Z,33.50
2022-08-07T18:24:07.702Z,33.80
2022-08-07T18:27:54.929Z,32.80
2022-08-07T18:32:00.258Z,33.60
2022-08-07T18:35:58.524Z,34.40
2022-08-07T18:40:06.344Z,34.50
2022-08-07T18:44:24.051Z,34.90
2022-08-07T18:50:35.139Z,35.10
2022-08-07T18:52:56.386Z,34.60
2022-08-07T18:56:57.875Z,35.60
2022-08-07T19:01:05.860Z,33.80
2022-08-07T19:05:15.132Z,34.50
2022-08-07T19:09:09.343Z,35.10
2022-08-07T19:13:50.054Z,35.80
2022-08-07T19:17:55.726Z,35.20
2022-08-07T19:21:58.519Z,36.10
2022-08-07T19:26:24.870Z,36.40
2022-08-07T19:31:06.200Z,35.80
2022-08-07T19:34:03.140Z,36.40
2022-08-07T19:37:57.508Z,36.30
2022-08-07T19:42:08.149Z,37.40
2022-08-07T19:46:06.016Z,37.20
2022-08-07T19:49:58.402Z,36.50
2022-08-07T19:54:30.848Z,36.70
2022-08-07T19:58:13.685Z,38.50
2022-08-07T20:02:01.633Z,37.10
2022-08-07T20:06:00.713Z,37.40
2022-08-07T20:10:35.652Z,38.00
2022-08-07T20:13:58.916Z,38.00
2022-08-07T20:17:45.402Z,40.30
2022-08-07T20:21:47.748Z,38.80
2022-08-07T20:25:32.722Z,39.00
2022-08-07T20:29:49.050Z,39.50
2022-08-07T20:33:37.621Z,40.00
2022-08-07T20:37:55.176Z,40.30
2022-08-07T20:41:40.567Z,41.70
2022-08-07T20:45:33.509Z,40.70
2022-08-07T20:49:59.476Z,41.30
2022-08-07T20:54:03.109Z,41.40
2022-08-07T20:58:02.579Z,43.20
2022-08-07T21:01:55.154Z,44.00
2022-08-07T21:05:55.871Z,42.40
2022-08-07T21:09:53.274Z,43.20
2022-08-07T21:14:16.647Z,43.20
2022-08-07T21:18:03.662Z,45.10
2022-08-07T21:21:57.163Z,44.10
2022-08-07T21:25:56.866Z,44.40
2022-08-07T21:29:53.126Z,48.00
2022-08-07T21:33:46.862Z,47.80
2022-08-07T21:37:59.140Z,48.60
2022-08-07T21:41:52.269Z,48.10
2022-08-07T21:46:08.752Z,47.10
2022-08-07T21:50:03.282Z,46.40
2022-08-07T21:53:53.703Z,48.60
2022-08-07T21:57:52.258Z,48.50
2022-08-07T22:02:11.282Z,51.00
2022-08-07T22:06:07.792Z,51.20
2022-08-07T22:10:11.806Z,51.10
2022-08-07T22:13:57.464Z,48.30
2022-08-07T22:18:02.204Z,48.60
2022-08-07T22:22:21.457Z,52.30
2022-08-07T22:26:44.440Z,52.40
2022-08-07T22:30:31.960Z,52.30
2022-08-07T22:34:37.569Z,50.10
2022-08-07T22:38:26.493Z,52.30
2022-08-07T22:42:25.625Z,52.00
2022-08-07T22:47:02.538Z,53.30
2022-08-07T22:51:16.350Z,51.40
2022-08-07T22:55:36.297Z,54.00
2022-08-07T22:59:33.205Z,54.30
2022-08-07T23:03:58.786Z,54.10
2022-08-07T23:08:07.084Z,54.90
2022-08-07T23:12:34.154Z,51.90
2022-08-07T23:16:54.914Z,55.30
2022-08-07T23:21:00.264Z,55.00
2022-08-07T23:25:19.134Z,55.50
2022-08-07T23:29:43.693Z,55.80
2022-08-07T23:34:19.920Z,55.50
2022-08-07T23:38:09.512Z,53.50
2022-08-07T23:42:30.380Z,53.00
2022-08-07T23:46:50.295Z,56.50
2022-08-07T23:50:45.271Z,56.80
2022-08-07T23:54:46.857Z,55.60
2022-08-07T23:58:37.796Z,56.40
